createdAt,value
2022-10-27T00:02:07.391Z,971.2
2022-10-27T00:07:08.884Z,971.23
2022-10-27T00:12:10.449Z,971.23
2022-10-27T00:17:11.807Z,971.26
2022-10-27T00:22:13.623Z,971.3
2022-10-27T00:27:15.218Z,971.25
2022-10-27T00:32:16.978Z,971.22
2022-10-27T00:37:18.550Z,971.28
2022-10-27T00:42:20.551Z,971.29
2022-10-27T00:47:22.538Z,971.36
2022-10-27T00:52:24.598Z,971.44
2022-10-27T00:57:26.234Z,971.44
2022-10-27T01:02:27.862Z,971.4
2022-10-27T01:07:29.442Z,971.45
2022-10-27T01:12:30.884Z,971.48
2022-10-27T01:17:32.570Z,971.52
2022-10-27T01:22:34.068Z,971.5
2022-10-27T01:27:35.291Z,971.51
2022-10-27T01:32:37.357Z,971.5
2022-10-27T01:37:38.999Z,971.53
2022-10-27T01:42:40.657Z,971.55
2022-10-27T01:47:42.446Z,971.53
2022-10-27T01:52:43.790Z,971.51
2022-10-27T01:57:45.159Z,971.49
2022-10-27T02:02:47.188Z,971.46
2022-10-27T02:07:48.970Z,971.51
2022-10-27T02:12:50.611Z,971.48
2022-10-27T02:17:51.928Z,971.53
2022-10-27T02:22:53.872Z,971.53
2022-10-27T02:27:55.709Z,971.5
2022-10-27T02:32:57.216Z,971.52
2022-10-27T02:37:58.926Z,971.5
2022-10-27T02:43:00.500Z,971.53
2022-10-27T02:48:01.717Z,971.53
2022-10-27T02:53:03.139Z,971.48
2022-10-27T02:58:04.953Z,971.59
2022-10-27T03:03:06.350Z,971.59
2022-10-27T03:08:07.862Z,971.56
2022-10-27T03:13:09.538Z,971.63
2022-10-27T03:18:11.185Z,971.6
2022-10-27T03:23:13.194Z,971.56
2022-10-27T03:28:15.403Z,971.52
2022-10-27T03:33:17.231Z,971.56
2022-10-27T03:38:19.329Z,971.55
2022-10-27T03:43:20.652Z,971.57
2022-10-27T03:48:22.725Z,971.59
2022-10-27T03:53:23.955Z,971.53
2022-10-27T03:58:25.615Z,971.5
2022-10-27T04:03:27.464Z,971.59
2022-10-27T04:08:29.344Z,971.66
2022-10-27T04:13:31.091Z,971.73
2022-10-27T04:18:32.784Z,971.78
2022-10-27T04:23:33.934Z,971.8
2022-10-27T04:28:35.335Z,971.78
2022-10-27T04:33:37.091Z,971.84
2022-10-27T04:38:38.438Z,971.85
2022-10-27T04:43:40.554Z,971.85
2022-10-27T04:48:42.200Z,971.94
2022-10-27T04:53:43.647Z,971.9
2022-10-27T04:58:45.167Z,971.82
2022-10-27T05:03:46.521Z,971.86
2022-10-27T05:08:48.610Z,971.86
2022-10-27T05:13:50.237Z,971.87
2022-10-27T05:18:52.120Z,971.82
2022-10-27T05:23:53.946Z,971.87
2022-10-27T05:28:56.087Z,971.92
2022-10-27T05:33:57.564Z,971.89
2022-10-27T05:38:59.065Z,971.84
2022-10-27T05:44:00.879Z,971.93
2022-10-27T05:49:02.657Z,971.94
2022-10-27T05:54:04.242Z,972.04
2022-10-27T05:59:06.003Z,972.07
2022-10-27T06:04:08.033Z,972.04
2022-10-27T06:09:09.835Z,972.07
2022-10-27T06:14:11.512Z,972.14
2022-10-27T06:19:12.726Z,972.22
2022-10-27T06:24:14.390Z,972.24
2022-10-27T06:29:15.866Z,972.27
2022-10-27T06:34:17.499Z,972.28
2022-10-27T06:39:19.627Z,972.36
2022-10-27T06:44:21.823Z,972.36
2022-10-27T06:49:23.875Z,972.36
2022-10-27T06:54:25.398Z,972.35
2022-10-27T06:59:27.223Z,972.35
2022-10-27T07:04:29.229Z,972.4
2022-10-27T07:09:31.235Z,972.5
2022-10-27T07:14:33.374Z,972.51
2022-10-27T07:19:34.680Z,972.51
2022-10-27T07:24:35.964Z,972.5
2022-10-27T07:29:37.739Z,972.54
2022-10-27T07:34:38.942Z,972.5
2022-10-27T07:39:41.068Z,972.48
2022-10-27T07:44:42.635Z,972.56
2022-10-27T07:49:44.395Z,972.63
2022-10-27T07:54:45.688Z,972.66
2022-10-27T07:59:47.811Z,972.67
2022-10-27T08:04:49.199Z,972.66
2022-10-27T08:09:50.915Z,972.6
2022-10-27T08:14:54.916Z,972.57
2022-10-27T08:19:54.378Z,972.59
2022-10-27T08:24:55.681Z,972.59
2022-10-27T08:29:56.937Z,972.62
2022-10-27T08:34:58.570Z,972.57
2022-10-27T08:40:00.051Z,972.5
2022-10-27T08:45:01.854Z,972.54
2022-10-27T08:50:03.599Z,972.58
2022-10-27T08:55:05.108Z,972.64
2022-10-27T09:00:07.138Z,972.6
2022-10-27T09:05:09.373Z,972.56
2022-10-27T09:10:09.787Z,972.52
2022-10-27T09:15:11.068Z,972.5
2022-10-27T09:20:12.918Z,972.51
2022-10-27T09:25:14.953Z,972.43
2022-10-27T09:30:16.598Z,972.45
2022-10-27T09:35:19.044Z,972.4
2022-10-27T09:40:20.697Z,972.35
2022-10-27T09:45:22.285Z,972.28
2022-10-27T09:50:24.283Z,972.34
2022-10-27T09:55:26.245Z,972.47
2022-10-27T10:00:27.792Z,972.51
2022-10-27T10:05:29.397Z,972.37
2022-10-27T10:10:30.876Z,972.35
2022-10-27T10:15:32.656Z,972.29
2022-10-27T10:20:34.019Z,972.31
2022-10-27T10:25:35.430Z,972.35
2022-10-27T10:30:36.836Z,972.39
2022-10-27T10:35:38.592Z,972.31
2022-10-27T10:40:40.590Z,972.31
2022-10-27T10:45:42.788Z,972.28
2022-10-27T10:50:44.784Z,972.25
2022-10-27T10:55:46.613Z,972.28
2022-10-27T11:00:47.850Z,972.27
2022-10-27T11:05:49.311Z,972.16
2022-10-27T11:10:50.584Z,972.13
2022-10-27T11:15:51.841Z,972.06
2022-10-27T11:20:53.464Z,972.05
2022-10-27T11:25:54.800Z,972.02
2022-10-27T11:30:57.995Z,971.91
2022-10-27T11:35:58.828Z,971.87
2022-10-27T11:41:00.314Z,971.86
2022-10-27T11:46:02.302Z,971.88
2022-10-27T11:51:03.832Z,971.8
2022-10-27T11:56:06.414Z,971.75
2022-10-27T12:01:07.419Z,971.73
2022-10-27T12:06:09.152Z,971.74
2022-10-27T12:11:10.348Z,971.66
2022-10-27T12:16:11.889Z,971.64
2022-10-27T12:21:13.493Z,971.57
2022-10-27T12:26:14.824Z,971.58
2022-10-27T12:31:16.290Z,971.6
2022-10-27T12:36:17.613Z,971.55
2022-10-27T12:41:19.622Z,971.49
2022-10-27T12:46:21.413Z,971.39
2022-10-27T12:51:23.499Z,971.44
2022-10-27T12:56:24.937Z,971.38
2022-10-27T13:01:27.945Z,971.44
2022-10-27T13:31:37.415Z,971.19
2022-10-27T13:46:48.663Z,971.18
2022-10-27T13:56:51.786Z,971.2
2022-10-27T14:06:55.969Z,971.2
2022-10-27T14:11:57.293Z,971.25
2022-10-27T14:16:58.641Z,971.26
2022-10-27T14:21:59.914Z,971.17
2022-10-27T14:27:01.290Z,971.22
2022-10-27T14:32:03.376Z,971.25
2022-10-27T14:37:05.035Z,971.21
2022-10-27T14:42:07.076Z,971.19
2022-10-27T14:47:08.324Z,971.17
2022-10-27T14:52:09.881Z,971.23
2022-10-27T14:57:10.955Z,971.24
2022-10-27T15:02:12.495Z,971.16
2022-10-27T15:07:14.271Z,971.2
2022-10-27T15:12:15.731Z,971.2
2022-10-27T15:17:17.764Z,971.17
2022-10-27T15:22:19.142Z,971.1
2022-10-27T15:27:20.579Z,971.09
2022-10-27T15:32:22.775Z,971.19
2022-10-27T15:37:23.973Z,971.14
2022-10-27T15:42:26.099Z,971.13
2022-10-27T15:47:28.103Z,971.18
2022-10-27T15:52:29.783Z,971.15
2022-10-27T15:57:31.570Z,971.17
2022-10-27T16:02:33.007Z,971.22
2022-10-27T16:07:35.130Z,971.26
2022-10-27T16:12:36.799Z,971.26
2022-10-27T16:17:38.506Z,971.28
2022-10-27T16:22:39.920Z,971.27
2022-10-27T16:27:41.748Z,971.24
2022-10-27T16:32:43.500Z,971.33
2022-10-27T16:37:45.667Z,971.32
2022-10-27T16:42:46.761Z,971.29
2022-10-27T16:47:48.848Z,971.29
2022-10-27T16:52:50.904Z,971.27
2022-10-27T16:57:52.479Z,971.29
2022-10-27T17:02:53.483Z,971.33
2022-10-27T17:07:55.436Z,971.4
2022-10-27T17:12:56.950Z,971.38
2022-10-27T17:17:58.474Z,971.42
2022-10-27T17:23:03.713Z,971.52
2022-10-27T17:28:01.198Z,971.51
2022-10-27T17:33:02.663Z,971.41
2022-10-27T17:38:04.459Z,971.43
2022-10-27T17:43:05.965Z,971.48
2022-10-27T17:48:07.791Z,971.58
2022-10-27T17:53:09.609Z,971.59
2022-10-27T17:58:10.855Z,971.64
2022-10-27T18:03:13.034Z,971.63
2022-10-27T18:08:14.428Z,971.62
2022-10-27T18:13:15.903Z,971.64
2022-10-27T18:18:17.544Z,971.62
2022-10-27T18:23:19.438Z,971.65
2022-10-27T18:28:21.345Z,971.71
2022-10-27T18:33:23.432Z,971.65
2022-10-27T18:38:24.921Z,971.65
2022-10-27T18:43:26.719Z,971.7
2022-10-27T18:48:28.121Z,971.67
2022-10-27T18:53:29.424Z,971.62
2022-10-27T18:58:30.526Z,971.66
2022-10-27T19:03:31.896Z,971.69
2022-10-27T19:08:33.713Z,971.65
2022-10-27T19:13:35.683Z,971.62
2022-10-27T19:18:37.323Z,971.6
2022-10-27T19:23:38.737Z,971.62
2022-10-27T19:28:40.577Z,971.58
2022-10-27T19:33:42.721Z,971.61
2022-10-27T19:38:44.878Z,971.63
2022-10-27T19:43:48.809Z,971.65
2022-10-27T19:48:48.598Z,971.68
2022-10-27T19:53:50.314Z,971.69
2022-10-27T19:58:51.704Z,971.63
2022-10-27T20:03:53.379Z,971.59
2022-10-27T20:08:56.522Z,971.6
2022-10-27T20:13:56.762Z,971.53
2022-10-27T20:18:58.433Z,971.63
2022-10-27T20:24:00.407Z,971.6
2022-10-27T20:29:02.502Z,971.54
2022-10-27T20:34:04.687Z,971.5
2022-10-27T20:39:06.034Z,971.47
2022-10-27T20:44:07.764Z,971.43
2022-10-27T20:49:09.252Z,971.53
2022-10-27T20:54:11.201Z,971.61
2022-10-27T20:59:12.364Z,971.65
2022-10-27T21:04:14.525Z,971.71
2022-10-27T21:09:15.698Z,971.69
2022-10-27T21:14:17.706Z,971.66
2022-10-27T21:19:19.252Z,971.59
2022-10-27T21:24:21.030Z,971.6
2022-10-27T21:29:22.631Z,971.63
2022-10-27T21:34:24.691Z,971.69
2022-10-27T21:39:26.156Z,971.68
2022-10-27T21:44:27.545Z,971.64
2022-10-27T21:49:29.249Z,971.63
2022-10-27T21:54:30.909Z,971.84
2022-10-27T21:59:32.145Z,971.76
2022-10-27T22:14:37.339Z,971.81
2022-10-27T22:19:38.524Z,971.81
2022-10-27T22:24:40.441Z,971.79
2022-10-27T22:29:42.085Z,971.68
2022-10-27T22:34:43.365Z,971.59
2022-10-27T22:39:44.728Z,971.64
2022-10-27T22:44:46.146Z,971.64
2022-10-27T22:49:48.245Z,971.66
2022-10-27T22:54:49.917Z,971.72
2022-10-27T22:59:51.396Z,971.69
2022-10-27T23:04:53.058Z,971.75
2022-10-27T23:09:54.738Z,971.76
2022-10-27T23:14:56.516Z,971.78
2022-10-27T23:19:58.118Z,971.8
2022-10-27T23:24:59.859Z,971.75
2022-10-27T23:30:01.370Z,971.75
2022-10-27T23:35:02.969Z,971.75
2022-10-27T23:40:04.560Z,971.73
2022-10-27T23:45:05.842Z,971.75
2022-10-27T23:50:06.996Z,971.72
2022-10-27T23:55:08.623Z,971.69
